Time;durP1;ratioP1;P1;durP2;ratioP2;P2;SDS_P1;SDS_P2;PMS_P1;PMS_P2;Temp;Humidity;BMP_temperature;BMP_pressure;BME280_temperature;BME280_humidity;BME280_pressure;Samples;Min_cycle;Max_cycle;Signal;HPM_P1;HPM_P2
2022/10/03 00:01:11;;;;;;;10.82;1.65;;;15.20;92.70;;;;;;5054469;28;20519;-68
2022/10/03 00:04:06;;;;;;;4.45;1.80;;;15.20;92.70;;;;;;5053759;28;20366;-68
2022/10/03 00:07:01;;;;;;;7.53;1.50;;;15.20;92.70;;;;;;5054504;28;20590;-68
2022/10/03 00:09:36;;;;;;;4.55;1.70;;;15.10;92.70;;;;;;5044364;28;20041;-68
2022/10/03 00:12:20;;;;;;;7.93;1.45;;;15.10;92.70;;;;;;5052413;28;20446;-68
2022/10/03 00:15:12;;;;;;;10.10;1.48;;;15.10;92.60;;;;;;5054157;28;20040;-68
2022/10/03 00:17:51;;;;;;;5.68;1.38;;;15.10;92.70;;;;;;5053419;28;20036;-67
2022/10/03 00:20:43;;;;;;;12.50;1.73;;;15.00;92.70;;;;;;5054133;28;20028;-68
2022/10/03 00:23:20;;;;;;;10.00;1.50;;;15.00;92.70;;;;;;5053961;28;20044;-68
2022/10/03 00:25:56;;;;;;;8.90;2.08;;;15.00;92.80;;;;;;5053124;28;20459;-68
2022/10/03 00:28:45;;;;;;;8.18;1.40;;;15.00;92.80;;;;;;5054199;28;20419;-68
2022/10/03 00:31:20;;;;;;;18.10;1.65;;;15.00;92.90;;;;;;5052781;28;20025;-68
2022/10/03 00:34:13;;;;;;;12.65;2.25;;;14.90;92.90;;;;;;5053056;28;20032;-68
2022/10/03 00:36:54;;;;;;;11.88;2.00;;;15.00;92.90;;;;;;5054019;28;20048;-68
2022/10/03 00:39:50;;;;;;;5.82;1.30;;;15.00;92.90;;;;;;5053000;28;20533;-68
2022/10/03 00:42:51;;;;;;;7.65;1.35;;;14.90;93.00;;;;;;5053762;28;20029;-68
2022/10/03 00:45:54;;;;;;;10.32;1.80;;;15.00;92.90;;;;;;5053708;28;20090;-68
2022/10/03 00:48:34;;;;;;;8.32;1.85;;;14.90;92.90;;;;;;5053518;28;20487;-68
2022/10/03 00:51:30;;;;;;;8.15;1.50;;;14.90;92.80;;;;;;5053784;28;20056;-68
2022/10/03 00:54:13;;;;;;;2.25;0.95;;;14.90;92.70;;;;;;5052732;28;20053;-68
2022/10/03 00:57:09;;;;;;;9.57;1.50;;;14.80;92.70;;;;;;5053671;28;20467;-68
2022/10/03 01:00:12;;;;;;;11.07;1.30;;;14.80;92.80;;;;;;5053293;28;20025;-68
2022/10/03 01:03:03;;;;;;;3.25;0.98;;;14.80;92.90;;;;;;5052041;28;20047;-68
2022/10/03 01:05:41;;;;;;;13.98;1.75;;;14.80;92.90;;;;;;5054179;28;20534;-68
2022/10/03 01:08:23;;;;;;;5.68;1.20;;;14.80;93.00;;;;;;5052711;28;20120;-68
2022/10/03 01:10:53;;;;;;;10.65;1.88;;;14.70;93.00;;;;;;5053294;28;20079;-68
2022/10/03 01:13:37;;;;;;;5.28;1.38;;;14.80;93.00;;;;;;5053428;28;20035;-68
2022/10/03 01:16:30;;;;;;;4.50;1.17;;;14.80;93.00;;;;;;5052861;28;20032;-68
2022/10/03 01:19:32;;;;;;;5.00;1.48;;;14.70;92.90;;;;;;5053102;28;20037;-68
2022/10/03 01:22:22;;;;;;;17.55;1.58;;;14.80;93.00;;;;;;5047725;28;20571;-68
2022/10/03 01:25:01;;;;;;;11.85;1.30;;;14.80;93.00;;;;;;5057360;28;20392;-68
2022/10/03 01:30:21;;;;;;;10.10;1.45;;;14.80;93.00;;;;;;5057454;28;20033;-68
2022/10/03 01:30:26;;;;;;;9.38;1.70;;;14.70;93.10;;;;;;5057820;28;20120;-68
2022/10/03 01:33:04;;;;;;;11.60;1.80;;;14.70;93.10;;;;;;5058264;28;20542;-68
2022/10/03 01:35:35;;;;;;;10.38;0.90;;;14.70;93.20;;;;;;5056581;28;20415;-68
2022/10/03 01:38:19;;;;;;;7.68;0.93;;;14.70;93.10;;;;;;5056981;28;20056;-68
2022/10/03 01:40:56;;;;;;;4.28;1.20;;;14.60;93.10;;;;;;5057031;28;20531;-68
2022/10/03 01:43:37;;;;;;;6.85;1.45;;;14.60;93.10;;;;;;5056394;28;20048;-68
2022/10/03 01:46:11;;;;;;;3.10;0.98;;;14.60;93.20;;;;;;5057225;28;20118;-68
2022/10/03 01:48:52;;;;;;;7.57;1.23;;;14.60;93.20;;;;;;5056941;28;20028;-68
2022/10/03 01:51:52;;;;;;;9.50;1.77;;;14.60;93.30;;;;;;5057160;28;20044;-68
2022/10/03 01:54:38;;;;;;;8.63;1.65;;;14.60;93.30;;;;;;5056880;28;20135;-68
2022/10/03 01:57:31;;;;;;;17.00;1.58;;;14.60;93.30;;;;;;5056215;28;20082;-68
2022/10/03 02:00:09;;;;;;;10.93;2.05;;;14.50;93.40;;;;;;5056907;28;20107;-68
2022/10/03 02:02:42;;;;;;;6.80;1.25;;;14.60;93.40;;;;;;5056733;28;20033;-68
2022/10/03 02:05:38;;;;;;;13.00;2.22;;;14.60;93.50;;;;;;5055974;28;20035;-68
2022/10/03 02:08:17;;;;;;;5.63;1.20;;;14.60;93.50;;;;;;5056820;28;20117;-68
2022/10/03 02:10:54;;;;;;;5.13;1.17;;;14.60;93.40;;;;;;5056006;28;20036;-68
2022/10/03 02:13:49;;;;;;;7.72;1.30;;;14.60;93.40;;;;;;5056630;28;20112;-68
2022/10/03 02:16:42;;;;;;;15.82;1.63;;;14.60;93.50;;;;;;5056707;28;20095;-68
2022/10/03 02:19:20;;;;;;;5.78;1.23;;;14.60;93.40;;;;;;5055873;28;20150;-68
2022/10/03 02:21:52;;;;;;;15.15;1.63;;;14.60;93.40;;;;;;5056261;28;20122;-68
2022/10/03 02:24:36;;;;;;;15.45;1.42;;;14.60;93.40;;;;;;5055406;28;20045;-68
2022/10/03 02:27:20;;;;;;;;;;;14.70;93.40;;;;;;5056974;28;20040;-68
2022/10/03 02:30:11;;;;;;;11.80;1.70;;;14.60;93.20;;;;;;5056219;28;19916;-68
2022/10/03 02:33:09;;;;;;;5.60;1.10;;;14.60;93.20;;;;;;5055521;28;20033;-68
2022/10/03 02:35:55;;;;;;;7.43;1.60;;;14.60;93.20;;;;;;5054911;28;20068;-68
2022/10/03 02:38:31;;;;;;;8.35;1.55;;;14.60;93.20;;;;;;5055233;28;20044;-68
2022/10/03 02:41:22;;;;;;;3.22;1.13;;;14.50;93.20;;;;;;5056223;28;20029;-68
2022/10/03 02:44:15;;;;;;;9.88;1.50;;;14.50;93.20;;;;;;5056030;28;20055;-68
2022/10/03 02:47:17;;;;;;;3.78;1.00;;;14.50;93.30;;;;;;5055118;28;20029;-68
2022/10/03 02:50:18;;;;;;;13.55;1.98;;;14.50;93.30;;;;;;5055863;28;20025;-68
2022/10/03 02:52:58;;;;;;;1.73;0.93;;;14.50;93.30;;;;;;5055096;28;20041;-68
2022/10/03 02:55:46;;;;;;;6.85;1.73;;;14.40;93.20;;;;;;5055655;28;20052;-68
2022/10/03 02:58:32;;;;;;;5.68;1.15;;;14.50;93.30;;;;;;5055855;28;20033;-68
2022/10/03 03:01:00;;;;;;;8.95;1.50;;;14.40;93.40;;;;;;5055052;28;20108;-68
2022/10/03 03:04:01;;;;;;;9.15;1.33;;;14.40;93.40;;;;;;5055420;28;20361;-68
2022/10/03 03:06:55;;;;;;;6.15;1.50;;;14.40;93.50;;;;;;5054789;28;20033;-68
2022/10/03 03:10:00;;;;;;;5.40;1.50;;;14.40;93.50;;;;;;5055591;28;20031;-68
2022/10/03 03:13:21;;;;;;;10.80;1.35;;;14.40;93.40;;;;;;5055493;28;20083;-68
2022/10/03 03:16:12;;;;;;;11.18;1.15;;;14.40;93.40;;;;;;5033196;28;20037;-68
2022/10/03 03:18:56;;;;;;;8.43;1.48;;;14.30;93.40;;;;;;5033213;28;20064;-68
2022/10/03 03:21:48;;;;;;;4.55;0.95;;;14.30;93.60;;;;;;5051763;28;20029;-68
2022/10/03 03:24:40;;;;;;;6.93;1.42;;;14.30;93.50;;;;;;5046705;28;20087;-68
2022/10/03 03:27:24;;;;;;;4.45;1.25;;;14.30;93.60;;;;;;5055285;28;20115;-68
2022/10/03 03:30:04;;;;;;;7.22;1.40;;;14.30;93.60;;;;;;5055120;28;20033;-68
2022/10/03 03:32:55;;;;;;;4.80;1.33;;;14.30;93.50;;;;;;5055077;28;20037;-68
2022/10/03 03:35:45;;;;;;;9.07;1.48;;;14.30;93.60;;;;;;5054401;28;20040;-68
2022/10/03 03:38:16;;;;;;;5.72;1.20;;;14.30;93.60;;;;;;5054990;28;20052;-68
2022/10/03 03:40:57;;;;;;;7.53;1.42;;;14.30;93.60;;;;;;5054900;28;20028;-68
2022/10/03 03:43:40;;;;;;;8.52;1.50;;;14.30;93.70;;;;;;5054254;28;20037;-68
2022/10/03 03:46:28;;;;;;;4.20;1.20;;;14.30;93.90;;;;;;5054702;28;20479;-68
2022/10/03 03:49:37;;;;;;;7.38;1.23;;;14.30;93.60;;;;;;5054107;28;20078;-68
2022/10/03 03:52:34;;;;;;;4.15;1.25;;;14.20;93.60;;;;;;5051819;28;20037;-68
2022/10/03 03:55:24;;;;;;;10.43;1.23;;;14.20;93.50;;;;;;5054454;28;20052;-68
2022/10/03 03:58:04;;;;;;;4.05;1.17;;;14.20;93.60;;;;;;5054181;28;20033;-68
2022/10/03 04:00:57;;;;;;;3.80;1.10;;;14.20;93.60;;;;;;5054505;28;20471;-68
2022/10/03 04:03:42;;;;;;;1.42;0.90;;;14.10;93.70;;;;;;5053503;28;20052;-68
2022/10/03 04:06:25;;;;;;;6.63;1.80;;;14.10;93.70;;;;;;5054287;28;20033;-68
2022/10/03 04:09:16;;;;;;;15.90;1.73;;;14.10;93.70;;;;;;5054511;28;20102;-67
2022/10/03 04:12:07;;;;;;;9.68;1.20;;;14.10;93.80;;;;;;5053714;28;20498;-67
2022/10/03 04:15:05;;;;;;;5.63;1.20;;;14.10;93.80;;;;;;5054301;28;20174;-68
2022/10/03 04:20:54;;;;;;;8.57;1.35;;;14.10;93.80;;;;;;5054121;28;20033;-67
2022/10/03 04:23:56;;;;;;;3.65;0.50;;;14.10;93.70;;;;;;5054164;28;20051;-68
2022/10/03 04:27:03;;;;;;;6.57;1.35;;;14.10;93.70;;;;;;5054423;28;20456;-68
2022/10/03 04:29:55;;;;;;;6.13;1.00;;;14.00;93.80;;;;;;5054068;28;20032;-67
2022/10/03 04:32:40;;;;;;;2.50;0.82;;;14.00;93.80;;;;;;5053175;28;20087;-68
2022/10/03 04:35:09;;;;;;;3.65;1.05;;;14.00;93.80;;;;;;5053806;28;20051;-67
2022/10/03 04:37:48;;;;;;;9.68;2.03;;;14.00;93.80;;;;;;5053981;28;20411;-68
2022/10/03 04:40:36;;;;;;;8.93;1.15;;;13.90;93.80;;;;;;5054246;28;20082;-68
2022/10/03 04:43:27;;;;;;;9.65;1.20;;;13.90;93.80;;;;;;5053596;28;20044;-68
2022/10/03 04:46:19;;;;;;;16.55;2.83;;;13.90;93.80;;;;;;5052523;28;20033;-68
2022/10/03 04:49:15;;;;;;;10.10;1.23;;;13.90;93.80;;;;;;5049635;28;20045;-68
2022/10/03 04:52:04;;;;;;;4.00;1.20;;;13.90;93.80;;;;;;5053459;28;20389;-68
2022/10/03 04:54:55;;;;;;;2.90;1.27;;;13.90;93.80;;;;;;5053555;28;20120;-68
2022/10/03 04:57:40;;;;;;;8.23;1.15;;;13.80;93.80;;;;;;5053071;28;20036;-68
2022/10/03 05:00:32;;;;;;;4.50;1.30;;;13.80;93.80;;;;;;5052784;28;20048;-68
2022/10/03 05:03:20;;;;;;;4.80;1.10;;;13.80;93.80;;;;;;5053662;28;20049;-68
2022/10/03 05:05:55;;;;;;;3.78;1.17;;;13.70;93.80;;;;;;5052848;28;20033;-68
2022/10/03 05:08:38;;;;;;;7.38;1.02;;;13.80;93.80;;;;;;5053464;28;20124;-68
2022/10/03 05:11:17;;;;;;;9.55;1.60;;;13.80;93.90;;;;;;5053349;28;20468;-68
2022/10/03 05:14:16;;;;;;;8.32;1.75;;;13.80;93.90;;;;;;5052771;28;20032;-68
2022/10/03 05:16:52;;;;;;;7.25;1.20;;;13.80;93.90;;;;;;5053360;28;20079;-68
2022/10/03 05:20:07;;;;;;;6.47;1.20;;;13.70;93.80;;;;;;5053447;28;20025;-68
2022/10/03 05:22:51;;;;;;;11.88;1.92;;;13.70;93.90;;;;;;5031230;28;20083;-68
2022/10/03 05:25:20;;;;;;;10.02;3.00;;;13.70;93.90;;;;;;5053213;28;20063;-68
2022/10/03 05:28:17;;;;;;;5.47;1.50;;;13.70;93.90;;;;;;5052604;28;20369;-67
2022/10/03 05:31:02;;;;;;;8.98;1.33;;;13.70;94.00;;;;;;5053480;28;20040;-68
2022/10/03 05:33:32;;;;;;;8.95;1.30;;;13.70;93.90;;;;;;5053660;28;20033;-68
2022/10/03 05:36:04;;;;;;;12.88;1.63;;;13.70;93.90;;;;;;5053027;28;20039;-68
2022/10/03 05:39:03;;;;;;;6.70;1.52;;;13.70;93.90;;;;;;5054074;28;20474;-68
2022/10/03 05:41:36;;;;;;;8.15;1.80;;;13.70;93.80;;;;;;5053332;28;20108;-68
2022/10/03 05:44:04;;;;;;;3.93;1.43;;;13.70;93.70;;;;;;5053360;28;20095;-68
2022/10/03 05:46:57;;;;;;;5.32;1.38;;;13.70;93.70;;;;;;5053228;28;20036;-67
2022/10/03 05:50:04;;;;;;;9.82;1.02;;;13.70;93.80;;;;;;5052306;28;20479;-68
2022/10/03 05:52:58;;;;;;;7.65;1.90;;;13.70;93.70;;;;;;5052868;28;20025;-67
2022/10/03 05:55:32;;;;;;;12.48;1.60;;;13.60;93.90;;;;;;5052222;28;20079;-67
2022/10/03 05:58:37;;;;;;;7.22;1.98;;;13.60;93.70;;;;;;5052979;28;20033;-68
2022/10/03 06:01:20;;;;;;;5.90;1.40;;;13.60;93.80;;;;;;5053087;28;20036;-68
2022/10/03 06:04:26;;;;;;;13.00;2.13;;;13.70;93.70;;;;;;5052151;28;20545;-67
2022/10/03 06:06:57;;;;;;;3.47;1.20;;;13.60;93.60;;;;;;5052911;28;20284;-68
2022/10/03 06:09:51;;;;;;;6.88;1.13;;;13.60;93.60;;;;;;5053877;28;20455;-67
2022/10/03 06:12:36;;;;;;;3.95;1.33;;;13.60;93.70;;;;;;5056739;28;20040;-68
2022/10/03 06:15:30;;;;;;;7.10;1.50;;;13.60;93.60;;;;;;5056514;28;20029;-68
2022/10/03 06:18:00;;;;;;;4.72;1.45;;;13.60;93.60;;;;;;5056274;28;20162;-67
2022/10/03 06:20:53;;;;;;;9.25;1.55;;;13.60;93.50;;;;;;5056738;28;20033;-67
2022/10/03 06:23:34;;;;;;;7.78;1.23;;;13.60;93.60;;;;;;5055614;28;20091;-67
2022/10/03 06:26:17;;;;;;;4.95;1.33;;;13.60;93.70;;;;;;5056429;28;20064;-67
2022/10/03 06:29:13;;;;;;;8.02;1.55;;;13.60;93.60;;;;;;5056495;28;20025;-67
2022/10/03 06:32:00;;;;;;;8.18;1.17;;;13.60;93.60;;;;;;5055471;28;20086;-68
2022/10/03 06:35:05;;;;;;;7.50;1.42;;;13.60;93.60;;;;;;5056278;28;20040;-68
2022/10/03 06:37:59;;;;;;;3.65;1.30;;;13.60;93.50;;;;;;5044007;28;20439;-68
2022/10/03 06:40:53;;;;;;;4.65;1.05;;;13.60;93.50;;;;;;5044926;28;20071;-67
2022/10/03 06:43:37;;;;;;;4.70;1.38;;;13.50;93.50;;;;;;5055935;28;20049;-68
2022/10/03 06:46:24;;;;;;;9.07;1.42;;;13.50;93.50;;;;;;5055677;28;20071;-67
2022/10/03 06:49:20;;;;;;;12.70;1.35;;;13.50;93.60;;;;;;5055999;28;20039;-67
2022/10/03 06:52:20;;;;;;;8.05;1.35;;;13.50;93.70;;;;;;5055149;28;20041;-68
2022/10/03 06:55:09;;;;;;;6.72;1.52;;;13.50;93.60;;;;;;5055550;28;20064;-68
2022/10/03 06:58:08;;;;;;;4.07;0.90;;;13.50;93.60;;;;;;5055797;28;20040;-68
2022/10/03 07:01:23;;;;;;;3.30;0.82;;;13.50;93.60;;;;;;5055124;28;20379;-68
2022/10/03 07:03:51;;;;;;;;;;;13.50;93.60;;;;;;5051000;28;20051;-67
2022/10/03 07:06:40;;;;;;;6.40;1.58;;;13.50;93.70;;;;;;5054883;28;20326;-67
2022/10/03 07:09:09;;;;;;;6.75;1.00;;;13.50;93.80;;;;;;5055627;28;20036;-67
2022/10/03 07:12:11;;;;;;;6.18;1.25;;;13.50;93.90;;;;;;5055368;28;20116;-68
2022/10/03 07:14:54;;;;;;;4.70;1.15;;;13.40;94.00;;;;;;5054666;28;20040;-67
2022/10/03 07:17:25;;;;;;;3.10;0.82;;;13.50;94.10;;;;;;5055506;28;20033;-68
2022/10/03 07:20:08;;;;;;;2.55;0.90;;;13.50;94.10;;;;;;5054496;28;20056;-67
2022/10/03 07:22:53;;;;;;;4.57;0.80;;;13.50;94.20;;;;;;5055211;28;20041;-67
2022/10/03 07:25:37;;;;;;;20.63;1.50;;;13.50;94.20;;;;;;5055503;28;20033;-67
2022/10/03 07:28:16;;;;;;;;;;;13.50;94.20;;;;;;5054766;28;20404;-67
2022/10/03 07:31:31;;;;;;;2.28;0.65;;;13.50;94.30;;;;;;5055348;28;20279;-68
2022/10/03 07:34:24;;;;;;;1.92;0.93;;;13.50;94.40;;;;;;5025816;28;20120;-68
2022/10/03 07:40:02;;;;;;;8.70;1.55;;;13.50;94.70;;;;;;5054977;28;20040;-67
2022/10/03 07:42:47;;;;;;;10.57;1.42;;;13.50;94.80;;;;;;5054105;28;20124;-67
2022/10/03 07:46:05;;;;;;;8.55;1.45;;;13.60;95.00;;;;;;5054949;28;20033;-68
2022/10/03 07:48:40;;;;;;;10.65;1.67;;;13.60;95.00;;;;;;5032033;28;20041;-67
2022/10/03 07:51:33;;;;;;;4.65;1.08;;;13.60;95.00;;;;;;5054309;28;20407;-67
2022/10/03 07:54:50;;;;;;;6.20;1.23;;;13.60;94.90;;;;;;5054630;28;20040;-67
2022/10/03 07:57:42;;;;;;;3.88;1.60;;;13.70;95.00;;;;;;5046098;28;20091;-67
2022/10/03 08:00:40;;;;;;;10.68;1.30;;;13.80;94.90;;;;;;5054490;28;20488;-68
2022/10/03 08:03:23;;;;;;;5.53;1.27;;;13.80;95.00;;;;;;5053524;28;20055;-67
2022/10/03 08:06:07;;;;;;;11.80;1.15;;;13.90;94.90;;;;;;5054345;28;20491;-67
2022/10/03 08:08:52;;;;;;;12.25;1.23;;;13.90;94.90;;;;;;5054644;28;20400;-67
2022/10/03 08:11:51;;;;;;;7.28;1.17;;;14.00;94.80;;;;;;5054384;28;20021;-67
2022/10/03 08:14:44;;;;;;;11.63;1.25;;;13.90;94.80;;;;;;5054370;28;20104;-67
2022/10/03 08:17:49;;;;;;;1.83;0.68;;;14.00;95.00;;;;;;5053645;28;20025;-67
2022/10/03 08:20:35;;;;;;;6.65;0.90;;;14.00;94.90;;;;;;5054328;28;20442;-67
2022/10/03 08:23:18;;;;;;;5.10;1.00;;;14.10;95.10;;;;;;5053379;28;20045;-67
2022/10/03 08:25:44;;;;;;;9.30;1.10;;;14.10;95.10;;;;;;5054300;28;20423;-68
2022/10/03 08:28:47;;;;;;;4.20;1.00;;;14.10;95.10;;;;;;5054165;28;20082;-67
2022/10/03 08:31:40;;;;;;;3.33;0.70;;;14.10;95.10;;;;;;5053445;28;20037;-67
2022/10/03 08:34:33;;;;;;;8.50;1.02;;;14.20;95.10;;;;;;5053514;28;20045;-67
2022/10/03 08:37:08;;;;;;;4.38;1.52;;;14.20;95.30;;;;;;5053050;28;20056;-67
2022/10/03 08:39:39;;;;;;;6.43;1.27;;;14.30;95.40;;;;;;5054037;28;20025;-67
2022/10/03 08:42:38;;;;;;;5.45;1.20;;;14.30;95.50;;;;;;5053798;28;20095;-67
2022/10/03 08:45:42;;;;;;;15.15;1.42;;;14.30;95.60;;;;;;5052725;28;20068;-68
2022/10/03 08:48:23;;;;;;;6.00;1.13;;;14.40;95.50;;;;;;5031758;28;20096;-67
2022/10/03 08:51:15;;;;;;;12.82;1.30;;;14.40;95.50;;;;;;5051422;28;20291;-67
2022/10/03 08:54:03;;;;;;;1.15;0.73;;;14.50;95.60;;;;;;5053818;28;20040;-68
2022/10/03 08:56:47;;;;;;;4.30;1.33;;;14.50;95.60;;;;;;5053393;28;20045;-69
2022/10/03 08:59:36;;;;;;;7.63;1.27;;;14.60;95.70;;;;;;5052485;28;20033;-69
2022/10/03 09:02:14;;;;;;;4.97;0.60;;;14.60;95.70;;;;;;5053604;28;20040;-72
2022/10/03 09:05:17;;;;;;;4.65;0.80;;;14.60;95.80;;;;;;5053581;28;20041;-73
2022/10/03 09:08:19;;;;;;;7.07;1.17;;;14.70;95.70;;;;;;5053532;28;20036;-75
2022/10/03 09:11:05;;;;;;;6.25;1.08;;;14.70;96.00;;;;;;5053569;28;20091;-75
2022/10/03 09:13:50;;;;;;;6.75;1.20;;;14.80;96.00;;;;;;5052615;28;20104;-75
2022/10/03 09:16:53;;;;;;;9.13;1.33;;;14.90;95.90;;;;;;5052815;28;20108;-75
2022/10/03 09:19:59;;;;;;;3.15;1.10;;;14.90;96.00;;;;;;5052760;28;20041;-74
2022/10/03 09:22:53;;;;;;;1.77;0.88;;;15.00;95.90;;;;;;5052523;28;20605;-76
2022/10/03 09:26:06;;;;;;;4.53;1.08;;;15.00;96.00;;;;;;5052106;28;20029;-76
2022/10/03 09:28:49;;;;;;;10.82;1.10;;;15.00;96.20;;;;;;5013717;28;20034;-75
2022/10/03 09:31:23;;;;;;;7.03;1.50;;;15.00;96.40;;;;;;5033397;28;20117;-71
2022/10/03 09:34:12;;;;;;;3.13;0.90;;;15.10;96.50;;;;;;5032648;28;20275;-74
2022/10/03 09:37:16;;;;;;;4.18;1.10;;;15.10;96.50;;;;;;5050869;28;20471;-73
2022/10/03 09:40:16;;;;;;;6.50;1.23;;;15.20;96.70;;;;;;5053250;28;20044;-72
2022/10/03 09:43:06;;;;;;;5.70;1.02;;;15.20;96.50;;;;;;5053135;28;20033;-74
2022/10/03 09:46:01;;;;;;;8.20;1.05;;;15.30;96.60;;;;;;5056830;28;20033;-72
2022/10/03 09:48:47;;;;;;;9.38;1.17;;;15.40;96.40;;;;;;5046260;28;20171;-72
2022/10/03 09:51:27;;;;;;;11.02;1.35;;;15.50;96.40;;;;;;5037156;28;20052;-70
2022/10/03 09:54:35;;;;;;;6.25;1.20;;;15.50;96.30;;;;;;5036881;28;20029;-74
2022/10/03 09:57:25;;;;;;;3.42;1.40;;;15.60;96.20;;;;;;5026679;28;20054;-72
2022/10/03 10:00:21;;;;;;;9.63;1.10;;;15.60;96.20;;;;;;5037021;28;20033;-73
2022/10/03 10:02:55;;;;;;;3.33;1.15;;;15.70;96.00;;;;;;5036219;28;20045;-76
2022/10/03 10:05:59;;;;;;;11.90;1.20;;;15.70;96.00;;;;;;5036910;28;20033;-74
2022/10/03 10:08:32;;;;;;;1.08;0.43;;;15.80;96.00;;;;;;5034692;28;20060;-73
2022/10/03 10:11:23;;;;;;;1.53;0.67;;;15.80;96.00;;;;;;5036795;28;20133;-73
2022/10/03 10:14:19;;;;;;;0.77;0.43;;;15.90;96.10;;;;;;5036736;28;20125;-73
2022/10/03 10:17:18;;;;;;;2.42;0.75;;;15.90;96.30;;;;;;5035888;28;20033;-73
2022/10/03 10:19:55;;;;;;;7.43;0.98;;;15.90;96.30;;;;;;5042384;28;20032;-73
2022/10/03 10:22:46;;;;;;;9.23;1.02;;;16.00;96.30;;;;;;5055698;28;20029;-72
2022/10/03 10:25:31;;;;;;;0.85;0.40;;;16.00;96.40;;;;;;5056034;28;20450;-77
2022/10/03 10:28:11;;;;;;;3.30;0.82;;;16.00;96.60;;;;;;5056426;28;20103;-77
2022/10/03 10:30:58;;;;;;;4.80;0.73;;;16.10;96.60;;;;;;5055330;28;20037;-77
2022/10/03 10:34:04;;;;;;;4.82;1.30;;;16.10;96.60;;;;;;5056204;28;20029;-77
2022/10/03 10:37:06;;;;;;;1.70;0.80;;;16.10;96.50;;;;;;5055565;28;20116;-77
2022/10/03 10:39:52;;;;;;;5.72;1.10;;;16.20;96.40;;;;;;5055838;28;20021;-77
2022/10/03 10:42:26;;;;;;;0.57;0.57;;;16.30;96.40;;;;;;5056078;28;20051;-77
2022/10/03 10:45:34;;;;;;;2.30;1.10;;;16.30;96.50;;;;;;5055490;28;20091;-77
2022/10/03 10:48:24;;;;;;;1.92;0.52;;;16.40;96.50;;;;;;5052908;28;20049;-77
2022/10/03 10:50:58;;;;;;;4.95;1.10;;;16.40;96.60;;;;;;5055293;28;20047;-77
2022/10/03 10:54:01;;;;;;;9.40;0.88;;;16.40;96.50;;;;;;5056103;28;20033;-77
2022/10/03 10:56:59;;;;;;;0.63;0.63;;;16.50;96.50;;;;;;5054835;28;20519;-77
2022/10/03 10:59:56;;;;;;;5.68;1.13;;;16.60;96.50;;;;;;5055119;28;20056;-77
2022/10/03 11:02:32;;;;;;;3.42;0.77;;;16.60;96.40;;;;;;5055714;28;20033;-77
2022/10/03 11:05:19;;;;;;;9.43;0.82;;;16.70;96.40;;;;;;5055131;28;20045;-77
2022/10/03 11:08:12;;;;;;;5.55;0.90;;;16.80;96.40;;;;;;5055770;28;20025;-78
2022/10/03 11:10:59;;;;;;;8.45;1.33;;;16.80;96.10;;;;;;5056173;28;20033;-78
2022/10/03 11:13:50;;;;;;;7.95;1.92;;;16.90;96.10;;;;;;5054885;28;20065;-77
2022/10/03 11:16:24;;;;;;;1.85;0.60;;;17.00;96.00;;;;;;5055642;28;20071;-77
2022/10/03 11:19:00;;;;;;;5.57;1.20;;;17.00;96.10;;;;;;5055393;28;20445;-78
2022/10/03 11:22:17;;;;;;;1.08;0.35;;;17.10;96.10;;;;;;5055863;28;20094;-77
2022/10/03 11:25:00;;;;;;;8.00;1.00;;;17.10;96.20;;;;;;5043042;28;20052;-77
2022/10/03 11:27:41;;;;;;;3.58;1.08;;;17.20;96.30;;;;;;5054427;28;20506;-78
2022/10/03 11:30:33;;;;;;;8.80;1.25;;;17.20;96.20;;;;;;5055418;28;20033;-77
2022/10/03 11:33:34;;;;;;;5.25;1.15;;;17.30;95.80;;;;;;5045686;28;20045;-77
2022/10/03 11:36:36;;;;;;;13.77;1.20;;;17.40;95.50;;;;;;5054950;28;20080;-77
2022/10/03 11:39:10;;;;;;;4.32;0.80;;;17.50;95.30;;;;;;5055257;28;20024;-77
2022/10/03 11:41:47;;;;;;;5.75;1.52;;;17.60;94.90;;;;;;5054082;28;20484;-77
2022/10/03 11:44:19;;;;;;;5.95;1.33;;;17.70;94.40;;;;;;5053989;28;20072;-75
2022/10/03 11:47:12;;;;;;;6.72;1.10;;;17.80;94.40;;;;;;5054022;28;20048;-74
2022/10/03 11:50:07;;;;;;;4.30;0.80;;;17.90;94.80;;;;;;5054811;28;20064;-76
2022/10/03 11:52:57;;;;;;;5.70;1.20;;;17.90;94.90;;;;;;5054606;28;20060;-72
2022/10/03 11:55:45;;;;;;;4.78;1.20;;;17.90;95.00;;;;;;5054101;28;20057;-72
2022/10/03 11:58:37;;;;;;;2.97;0.43;;;18.00;94.80;;;;;;5054919;28;20036;-72
2022/10/03 12:01:30;;;;;;;0.80;0.43;;;18.00;95.30;;;;;;5052466;28;20079;-71
2022/10/03 12:04:13;;;;;;;6.65;1.02;;;18.10;95.60;;;;;;5054370;28;20041;-72
2022/10/03 12:09:43;;;;;;;4.63;0.98;;;18.10;95.40;;;;;;5053568;28;20033;-72
2022/10/03 12:12:29;;;;;;;0.65;0.40;;;18.20;95.80;;;;;;5054215;28;20477;-72
2022/10/03 12:15:04;;;;;;;3.55;0.88;;;18.20;96.00;;;;;;5053586;28;20037;-71
2022/10/03 12:17:45;;;;;;;8.13;1.48;;;18.20;95.90;;;;;;5054223;28;20033;-72
2022/10/03 12:20:22;;;;;;;2.28;0.40;;;18.20;95.70;;;;;;5054541;28;20033;-71
2022/10/03 12:23:08;;;;;;;2.42;0.50;;;18.30;95.90;;;;;;5053727;28;20041;-72
2022/10/03 12:25:39;;;;;;;5.22;0.85;;;18.30;95.80;;;;;;5054228;28;20037;-73
2022/10/03 12:28:25;;;;;;;6.10;1.30;;;18.30;95.50;;;;;;5054091;28;20427;-70
2022/10/03 12:30:59;;;;;;;4.97;1.10;;;18.40;95.30;;;;;;5053418;28;20029;-69
2022/10/03 12:33:35;;;;;;;;;;;18.50;95.40;;;;;;5054061;28;20086;-71
2022/10/03 12:36:38;;;;;;;5.57;1.33;;;18.50;95.80;;;;;;5050926;28;20275;-70
2022/10/03 12:39:28;;;;;;;5.43;1.17;;;18.50;95.30;;;;;;5050484;28;20083;-72
2022/10/03 12:42:08;;;;;;;4.07;1.10;;;18.60;94.60;;;;;;5053071;28;20515;-72
2022/10/03 12:44:55;;;;;;;4.47;1.20;;;18.60;94.20;;;;;;5052458;28;20036;-71
2022/10/03 12:47:33;;;;;;;7.07;1.25;;;18.70;93.90;;;;;;5051782;28;20029;-75
2022/10/03 12:50:32;;;;;;;8.15;1.20;;;18.80;93.80;;;;;;5052998;28;20450;-76
2022/10/03 12:53:03;;;;;;;5.03;1.13;;;18.80;94.50;;;;;;5053599;28;20039;-76
2022/10/03 12:55:52;;;;;;;7.53;1.60;;;18.90;94.70;;;;;;5053383;28;20491;-76
2022/10/03 12:58:33;;;;;;;20.60;2.90;;;18.90;94.60;;;;;;5041606;28;20044;-76
2022/10/03 13:01:20;;;;;;;7.97;1.58;;;18.90;94.60;;;;;;5053486;28;20527;-76
2022/10/03 13:04:18;;;;;;;9.15;1.30;;;19.00;94.10;;;;;;5053568;28;20395;-77
2022/10/03 13:06:53;;;;;;;5.47;1.10;;;19.00;93.70;;;;;;5053364;28;20119;-68
2022/10/03 13:09:44;;;;;;;10.13;1.60;;;19.10;93.70;;;;;;5053555;28;20059;-68
2022/10/03 13:12:26;;;;;;;12.93;3.30;;;19.10;93.50;;;;;;5052419;28;20029;-68
2022/10/03 13:15:30;;;;;;;4.55;1.00;;;19.20;93.30;;;;;;5053517;28;20029;-68
2022/10/03 13:18:02;;;;;;;9.20;1.53;;;19.20;93.30;;;;;;5053132;28;20032;-68
2022/10/03 13:20:33;;;;;;;7.78;1.60;;;19.30;93.40;;;;;;5052585;28;20025;-68
2022/10/03 13:23:11;;;;;;;9.68;1.73;;;19.40;93.10;;;;;;5053284;28;20067;-67
2022/10/03 13:25:54;;;;;;;7.70;1.15;;;19.40;92.80;;;;;;5052524;28;20067;-68
2022/10/03 13:28:40;;;;;;;10.93;1.60;;;19.50;92.60;;;;;;5053322;28;20124;-68
2022/10/03 13:31:14;;;;;;;6.47;1.25;;;19.50;93.00;;;;;;5053415;28;20037;-68
2022/10/03 13:33:50;;;;;;;8.38;1.35;;;19.50;92.70;;;;;;5052555;28;20037;-68
2022/10/03 13:36:28;;;;;;;6.25;1.15;;;19.60;92.30;;;;;;5053197;28;20551;-68
2022/10/03 13:39:22;;;;;;;9.98;1.67;;;19.60;92.10;;;;;;5053163;28;20043;-68
2022/10/03 13:42:09;;;;;;;;;;;19.70;92.10;;;;;;5053644;28;20496;-68
2022/10/03 13:44:49;;;;;;;6.18;1.10;;;19.70;93.10;;;;;;5053220;28;19917;-68
2022/10/03 13:47:21;;;;;;;9.77;1.38;;;19.70;92.70;;;;;;5052391;28;20082;-68
2022/10/03 13:49:57;;;;;;;5.20;1.40;;;19.80;92.50;;;;;;5053332;28;20044;-68
2022/10/03 13:52:45;;;;;;;6.60;1.75;;;19.80;92.20;;;;;;5053277;28;20033;-68
2022/10/03 13:55:26;;;;;;;10.10;1.35;;;19.80;92.10;;;;;;5052122;28;20044;-68
2022/10/03 13:58:06;;;;;;;3.28;1.10;;;19.80;92.40;;;;;;5053260;28;20119;-68
2022/10/03 14:01:10;;;;;;;6.30;1.17;;;19.90;91.80;;;;;;5052402;28;20025;-68
2022/10/03 14:04:21;;;;;;;4.75;1.30;;;19.90;92.00;;;;;;5052978;28;20484;-68
2022/10/03 14:07:13;;;;;;;8.05;1.88;;;20.00;92.00;;;;;;5052932;28;20549;-68
2022/10/03 14:10:07;;;;;;;5.88;1.30;;;20.00;91.80;;;;;;5052298;28;20025;-68
2022/10/03 14:13:11;;;;;;;10.38;1.42;;;20.00;91.80;;;;;;5053020;28;20033;-68
2022/10/03 14:15:50;;;;;;;5.35;1.48;;;20.00;92.00;;;;;;5051962;28;20220;-68
2022/10/03 14:18:21;;;;;;;9.93;1.58;;;20.10;92.00;;;;;;5052744;28;20051;-68
2022/10/03 14:20:52;;;;;;;10.13;1.05;;;20.10;91.90;;;;;;5052752;28;20443;-68
2022/10/03 14:23:49;;;;;;;8.98;1.40;;;20.10;91.60;;;;;;5052137;28;20068;-68
2022/10/03 14:26:28;;;;;;;5.93;1.27;;;20.20;91.70;;;;;;5053002;28;20166;-68
2022/10/03 14:29:14;;;;;;;10.50;1.38;;;20.20;91.30;;;;;;5051909;28;20029;-68
2022/10/03 14:31:51;;;;;;;7.55;1.65;;;20.20;91.10;;;;;;5054928;28;20116;-68
2022/10/03 14:34:35;;;;;;;7.22;1.50;;;20.20;90.80;;;;;;5056357;28;20061;-68
2022/10/03 14:37:13;;;;;;;;;;;20.20;90.90;;;;;;5055731;28;20361;-68
2022/10/03 14:39:41;;;;;;;8.57;1.60;;;20.20;91.50;;;;;;5056313;28;19947;-68